createdAt,value
2018-04-11T00:01:03.351Z,95070.64
2018-04-11T00:03:32.851Z,95073.33
2018-04-11T00:06:02.354Z,95073.14
2018-04-11T00:08:31.845Z,95069.66
2018-04-11T00:11:01.343Z,95071.82
2018-04-11T00:13:30.832Z,95068.33
2018-04-11T00:16:00.323Z,95075.09
2018-04-11T00:18:29.836Z,95073.75
2018-04-11T00:20:59.326Z,95066.77
2018-04-11T00:23:29.214Z,95064.45
2018-04-11T00:25:58.904Z,95064.28
2018-04-11T00:28:28.415Z,95066.03
2018-04-11T00:30:57.963Z,95074.91
2018-04-11T00:33:27.459Z,95070.88
2018-04-11T00:35:57.338Z,95071.63
2018-04-11T00:38:26.831Z,95069.52
2018-04-11T00:40:56.327Z,95067.56
2018-04-11T00:43:25.844Z,95050.34
2018-04-11T00:45:55.333Z,95050.38
2018-04-11T00:48:24.826Z,95049.79
2018-04-11T00:50:54.320Z,95052.11
2018-04-11T00:53:27.649Z,95057.90
2018-04-11T00:55:57.147Z,95053.07
2018-04-11T00:58:26.638Z,95065.00
2018-04-11T01:00:56.124Z,95056.36
2018-04-11T01:03:25.618Z,95051.71
2018-04-11T01:05:55.501Z,95047.48
2018-04-11T01:08:24.996Z,95041.61
2018-04-11T01:10:54.504Z,95043.77
2018-04-11T01:13:24.004Z,95042.52
2018-04-11T01:15:53.504Z,95045.56
2018-04-11T01:18:23.007Z,95045.90
2018-04-11T01:20:52.498Z,95044.05
2018-04-11T01:23:21.997Z,95045.13
2018-04-11T01:25:51.493Z,95042.09
2018-04-11T01:28:20.988Z,95042.37
2018-04-11T01:30:50.899Z,95044.13
2018-04-11T01:33:20.783Z,95042.41
2018-04-11T01:35:50.300Z,95039.90
2018-04-11T01:38:19.799Z,95043.78
2018-04-11T01:40:49.292Z,95045.32
2018-04-11T01:43:18.555Z,95049.77
2018-04-11T01:45:48.065Z,95051.70
2018-04-11T01:48:17.558Z,95049.38
2018-04-11T01:50:47.798Z,95044.37
2018-04-11T01:53:17.302Z,95048.22
2018-04-11T01:55:46.797Z,95044.38
2018-04-11T01:58:16.854Z,95042.59
2018-04-11T02:00:46.353Z,95038.70
2018-04-11T02:03:15.876Z,95038.67
2018-04-11T02:05:45.390Z,95039.36
2018-04-11T02:08:14.892Z,95039.00
2018-04-11T02:10:44.170Z,95041.84
2018-04-11T02:13:13.660Z,95043.91
2018-04-11T02:15:43.163Z,95040.59
2018-04-11T02:18:12.455Z,95047.07
2018-04-11T02:20:41.941Z,95040.67
2018-04-11T02:23:11.448Z,95042.15
2018-04-11T02:25:40.949Z,95046.70
2018-04-11T02:28:10.835Z,95054.84
2018-04-11T02:30:40.327Z,95054.32
2018-04-11T02:33:10.016Z,95051.35
2018-04-11T02:35:39.517Z,95059.09
2018-04-11T02:38:09.022Z,95061.03
2018-04-11T02:40:38.520Z,95058.25
2018-04-11T02:43:08.020Z,95063.03
2018-04-11T02:45:37.511Z,95065.51
2018-04-11T02:48:07.011Z,95066.16
2018-04-11T02:50:36.905Z,95069.47
2018-04-11T02:53:06.807Z,95071.04
2018-04-11T02:55:36.309Z,95075.34
2018-04-11T02:58:05.806Z,95068.90
2018-04-11T03:00:35.288Z,95076.43
2018-04-11T03:03:04.819Z,95073.47
2018-04-11T03:05:34.317Z,95073.50
2018-04-11T03:08:03.822Z,95072.66
2018-04-11T03:10:33.516Z,95073.34
2018-04-11T03:13:03.004Z,95072.45
2018-04-11T03:15:32.488Z,95071.97
2018-04-11T03:18:02.372Z,95072.36
2018-04-11T03:20:31.863Z,95072.30
2018-04-11T03:23:02.262Z,95076.20
2018-04-11T03:25:31.760Z,95070.59
2018-04-11T03:28:01.254Z,95060.83
2018-04-11T03:30:30.753Z,95066.23
2018-04-11T03:33:00.654Z,95064.49
2018-04-11T03:35:30.574Z,95066.62
2018-04-11T03:38:00.470Z,95063.06
2018-04-11T03:40:29.984Z,95061.81
2018-04-11T03:42:59.478Z,95064.47
2018-04-11T03:45:28.987Z,95058.30
2018-04-11T03:47:58.519Z,95062.55
2018-04-11T03:50:28.397Z,95067.55
2018-04-11T03:52:57.887Z,95064.36
2018-04-11T03:55:27.395Z,95071.06
2018-04-11T03:57:56.896Z,95067.89
2018-04-11T04:00:26.431Z,95067.14
2018-04-11T04:02:55.946Z,95065.61
2018-04-11T04:05:25.838Z,95054.03
2018-04-11T04:07:55.326Z,95046.35
2018-04-11T04:10:24.822Z,95044.66
2018-04-11T04:12:54.392Z,95047.11
2018-04-11T04:15:41.184Z,95042.24
2018-04-11T04:18:27.334Z,95052.77
2018-04-11T04:20:56.832Z,95051.84
2018-04-11T04:23:26.330Z,95049.59
2018-04-11T04:25:55.589Z,95054.80
2018-04-11T04:28:25.074Z,95055.52
2018-04-11T04:30:54.645Z,95056.09
2018-04-11T04:33:24.139Z,95049.05
2018-04-11T04:35:53.636Z,95059.31
2018-04-11T04:38:23.149Z,95058.59
2018-04-11T04:40:52.669Z,95064.89
2018-04-11T04:43:22.155Z,95070.95
2018-04-11T04:45:51.643Z,95077.09
2018-04-11T04:48:21.545Z,95081.93
2018-04-11T04:50:50.483Z,95079.62
2018-04-11T04:53:20.011Z,95085.37
2018-04-11T04:55:49.542Z,95082.95
2018-04-11T04:58:19.241Z,95079.86
2018-04-11T05:00:48.735Z,95077.97
2018-04-11T05:03:18.237Z,95074.02
2018-04-11T05:05:47.750Z,95071.89
2018-04-11T05:08:17.245Z,95079.64
2018-04-11T05:10:46.754Z,95078.88
2018-04-11T05:13:16.259Z,95082.75
2018-04-11T05:15:45.537Z,95083.78
2018-04-11T05:18:15.031Z,95086.83
2018-04-11T05:20:44.516Z,95078.33
2018-04-11T05:23:14.402Z,95070.98
2018-04-11T05:25:43.905Z,95070.27
2018-04-11T05:28:13.201Z,95068.38
2018-04-11T05:30:42.855Z,95062.74
2018-04-11T05:33:12.746Z,95073.92
2018-04-11T05:35:42.013Z,95077.79
2018-04-11T05:38:11.262Z,95081.95
2018-04-11T05:40:40.916Z,95082.81
2018-04-11T05:43:10.400Z,95085.43
2018-04-11T05:45:39.648Z,95089.72
2018-04-11T05:48:09.141Z,95084.93
2018-04-11T05:50:39.438Z,95081.84
2018-04-11T05:53:09.171Z,95079.15
2018-04-11T05:55:39.798Z,95073.17
2018-04-11T05:58:09.306Z,95073.93
2018-04-11T06:00:39.058Z,95071.33
2018-04-11T06:03:08.954Z,95070.27
2018-04-11T06:05:38.486Z,95067.64
2018-04-11T06:08:08.384Z,95059.77
2018-04-11T06:10:37.882Z,95058.80
2018-04-11T06:13:07.401Z,95061.32
2018-04-11T06:15:37.296Z,95054.34
2018-04-11T06:18:06.791Z,95045.83
2018-04-11T06:20:36.320Z,95045.17
2018-04-11T06:23:05.804Z,95044.70
2018-04-11T06:25:35.500Z,95054.82
2018-04-11T06:28:05.091Z,95055.98
2018-04-11T06:30:34.733Z,95062.05
2018-04-11T06:33:04.213Z,95056.87
2018-04-11T06:35:33.705Z,95065.27
2018-04-11T06:38:03.210Z,95062.33
2018-04-11T06:40:32.711Z,95069.96
2018-04-11T06:43:02.223Z,95064.06
2018-04-11T06:45:31.723Z,95069.83
2018-04-11T06:48:01.229Z,95073.62
2018-04-11T06:50:30.735Z,95072.64
2018-04-11T06:53:00.240Z,95072.70
2018-04-11T06:55:29.751Z,95076.14
2018-04-11T06:57:59.269Z,95065.73
2018-04-11T07:00:28.765Z,95072.95
2018-04-11T07:02:58.262Z,95066.92
2018-04-11T07:05:27.761Z,95059.64
2018-04-11T07:07:57.256Z,95058.80
2018-04-11T07:10:27.141Z,95052.73
2018-04-11T07:12:56.651Z,95051.30
2018-04-11T07:15:26.144Z,95051.62
2018-04-11T07:17:55.645Z,95054.59
2018-04-11T07:20:25.105Z,95043.07
2018-04-11T07:22:54.637Z,95043.76
2018-04-11T07:25:24.135Z,95050.64
2018-04-11T07:27:53.629Z,95052.05
2018-04-11T07:30:23.121Z,95047.60
2018-04-11T07:32:52.621Z,95048.14
2018-04-11T07:35:22.529Z,95050.94
2018-04-11T07:37:52.421Z,95049.69
2018-04-11T07:40:21.992Z,95037.77
2018-04-11T07:42:52.035Z,95029.98
2018-04-11T07:45:21.539Z,95022.88
2018-04-11T07:47:51.067Z,95032.05
2018-04-11T07:50:20.559Z,95025.71
2018-04-11T07:52:50.799Z,95042.78
2018-04-11T07:55:20.704Z,95025.41
2018-04-11T07:57:50.213Z,95024.16
2018-04-11T08:00:19.898Z,95032.56
2018-04-11T08:02:49.450Z,95015.26
2018-04-11T08:05:18.737Z,95020.52
2018-04-11T08:07:48.279Z,95006.34
2018-04-11T08:10:17.787Z,95007.67
2018-04-11T08:12:47.272Z,95003.02
2018-04-11T08:15:16.782Z,95010.05
2018-04-11T08:17:46.279Z,95000.19
2018-04-11T08:20:15.935Z,94993.13
2018-04-11T08:22:45.462Z,94988.13
2018-04-11T08:25:14.963Z,94986.86
2018-04-11T08:27:44.427Z,94989.16
2018-04-11T08:30:13.909Z,94982.86
2018-04-11T08:32:43.189Z,94986.29
2018-04-11T08:35:12.683Z,94989.16
2018-04-11T08:37:42.187Z,94990.80
2018-04-11T08:40:11.679Z,94984.68
2018-04-11T08:42:41.180Z,94979.47
2018-04-11T08:45:10.672Z,94977.06
2018-04-11T08:47:40.175Z,94978.10
2018-04-11T08:50:09.679Z,94971.66
2018-04-11T08:52:39.184Z,94976.77
2018-04-11T08:55:08.677Z,94976.19
2018-04-11T08:57:38.171Z,94956.39
2018-04-11T09:00:07.662Z,94965.84
2018-04-11T09:02:37.545Z,94964.08
2018-04-11T09:05:07.063Z,94953.25
2018-04-11T09:07:36.321Z,94946.76
2018-04-11T09:10:05.819Z,94948.09
2018-04-11T09:12:35.329Z,94938.66
2018-04-11T09:15:04.832Z,94938.41
2018-04-11T09:17:34.334Z,94939.86
2018-04-11T09:20:03.825Z,94939.86
2018-04-11T09:22:33.358Z,94929.27
2018-04-11T09:25:02.864Z,94926.27
2018-04-11T09:27:32.405Z,94936.72
2018-04-11T09:30:01.928Z,94925.08
2018-04-11T09:32:31.813Z,94924.70
2018-04-11T09:35:01.065Z,94938.66
2018-04-11T09:37:30.569Z,94919.66
2018-04-11T09:40:00.057Z,94918.83
2018-04-11T09:42:29.962Z,94932.12
2018-04-11T09:44:59.459Z,94911.93
2018-04-11T09:47:28.949Z,94914.55
2018-04-11T09:49:58.452Z,94905.23
2018-04-11T09:52:27.944Z,94902.60
2018-04-11T09:54:57.441Z,94897.14
2018-04-11T09:57:26.938Z,94898.28
2018-04-11T09:59:56.422Z,94899.12
2018-04-11T10:02:25.686Z,94923.05
2018-04-11T10:05:04.298Z,94883.41
2018-04-11T10:07:33.815Z,94882.42
2018-04-11T10:10:03.329Z,94893.39
2018-04-11T10:12:32.822Z,94876.45
2018-04-11T10:15:02.332Z,94878.27
2018-04-11T10:17:31.833Z,94879.53
2018-04-11T10:20:01.328Z,94882.20
2018-04-11T10:22:30.613Z,94874.77
2018-04-11T10:24:59.888Z,94883.83
2018-04-11T10:27:29.377Z,94872.66
2018-04-11T10:29:59.300Z,94840.02
2018-04-11T10:32:29.378Z,94829.30
2018-04-11T10:34:58.870Z,94837.80
2018-04-11T10:37:28.363Z,94846.25
2018-04-11T10:39:57.865Z,94872.33
2018-04-11T10:42:27.366Z,94842.59
2018-04-11T10:44:56.868Z,94844.34
2018-04-11T10:47:26.352Z,94832.55
2018-04-11T10:49:55.856Z,94828.25
2018-04-11T10:52:25.348Z,94829.80
2018-04-11T10:54:55.266Z,94829.86
2018-04-11T10:57:25.158Z,94833.19
2018-04-11T10:59:54.668Z,94818.61
2018-04-11T11:02:24.165Z,94816.64
2018-04-11T11:04:53.442Z,94822.55
2018-04-11T11:07:22.943Z,94829.42
2018-04-11T11:09:52.226Z,94834.87
2018-04-11T11:12:21.718Z,94836.08
2018-04-11T11:14:51.216Z,94822.85
2018-04-11T11:17:21.100Z,94834.16
2018-04-11T11:20:02.307Z,94809.02
2018-04-11T11:22:31.842Z,94835.91
2018-04-11T11:25:00.780Z,94827.99
2018-04-11T11:27:30.272Z,94825.22
2018-04-11T11:29:59.772Z,94818.34
2018-04-11T11:32:29.277Z,94800.70
2018-04-11T11:34:58.546Z,94818.81
2018-04-11T11:37:27.809Z,94791.54
2018-04-11T11:39:57.487Z,94802.30
2018-04-11T11:42:27.061Z,94791.39
2018-04-11T11:44:56.556Z,94799.88
2018-04-11T11:47:26.046Z,94777.11
2018-04-11T11:49:55.376Z,94790.06
2018-04-11T11:52:24.875Z,94798.23
2018-04-11T11:54:54.380Z,94782.45
2018-04-11T11:57:23.945Z,94782.73
2018-04-11T11:59:53.588Z,94775.44
2018-04-11T12:02:23.107Z,94786.92
2018-04-11T12:04:52.623Z,94774.08
2018-04-11T12:07:22.284Z,94787.72
2018-04-11T12:09:51.775Z,94782.95
2018-04-11T12:12:21.284Z,94775.62
2018-04-11T12:14:50.777Z,94775.89
2018-04-11T12:17:20.309Z,94782.36
2018-04-11T12:19:50.210Z,94804.44
2018-04-11T12:22:19.729Z,94777.44
2018-04-11T12:24:49.420Z,94784.77
2018-04-11T12:27:19.112Z,94765.81
2018-04-11T12:29:48.647Z,94761.97
2018-04-11T12:32:18.134Z,94775.62
2018-04-11T12:34:47.622Z,94763.55
2018-04-11T12:37:17.140Z,94750.13
2018-04-11T12:39:46.825Z,94751.73
2018-04-11T12:42:16.530Z,94742.50
2018-04-11T12:44:46.040Z,94738.91
2018-04-11T12:47:15.530Z,94737.45
2018-04-11T12:49:45.059Z,94740.70
2018-04-11T12:52:14.562Z,94727.23
2018-04-11T12:54:43.817Z,94733.25
2018-04-11T12:57:13.528Z,94735.59
2018-04-11T12:59:43.415Z,94706.39
2018-04-11T13:02:12.918Z,94709.19
2018-04-11T13:04:42.407Z,94715.62
2018-04-11T13:07:11.905Z,94698.59
2018-04-11T13:09:41.402Z,94698.60
2018-04-11T13:12:10.674Z,94704.63
2018-04-11T13:14:40.564Z,94693.92
2018-04-11T13:17:10.076Z,94692.94
2018-04-11T13:19:39.256Z,94691.45
2018-04-11T13:22:08.747Z,94686.30
2018-04-11T13:24:38.240Z,94677.02
2018-04-11T13:27:07.738Z,94671.39
2018-04-11T13:29:37.248Z,94672.78
2018-04-11T13:32:06.752Z,94665.63
2018-04-11T13:34:36.301Z,94665.25
2018-04-11T13:37:05.742Z,94668.87
2018-04-11T13:39:35.434Z,94657.11
2018-04-11T13:42:05.334Z,94651.52
2018-04-11T13:44:34.597Z,94642.41
2018-04-11T13:47:03.890Z,94637.31
2018-04-11T13:49:33.612Z,94642.37
2018-04-11T13:52:03.658Z,94636.30
2018-04-11T13:54:33.185Z,94631.93
2018-04-11T13:57:03.089Z,94631.90
2018-04-11T13:59:32.591Z,94619.94
2018-04-11T14:02:02.503Z,94623.69
2018-04-11T14:04:31.764Z,94621.23
2018-04-11T14:07:01.269Z,94629.22
2018-04-11T14:09:30.740Z,94617.14
2018-04-11T14:12:00.022Z,94621.24
2018-04-11T14:14:29.977Z,94618.91
2018-04-11T14:16:59.410Z,94609.84
2018-04-11T14:19:28.687Z,94610.81
2018-04-11T14:21:58.199Z,94606.09
2018-04-11T14:24:27.468Z,94604.52
2018-04-11T14:26:56.970Z,94600.30
2018-04-11T14:29:26.650Z,94598.59
2018-04-11T14:31:56.155Z,94597.61
2018-04-11T14:34:25.657Z,94615.58
2018-04-11T14:36:55.166Z,94591.97
2018-04-11T14:39:24.658Z,94591.97
2018-04-11T14:41:54.156Z,94595.16
2018-04-11T14:44:23.437Z,94586.88
2018-04-11T14:46:52.898Z,94594.12
2018-04-11T14:49:22.808Z,94602.11
2018-04-11T14:51:52.726Z,94589.98
2018-04-11T14:54:22.627Z,94592.36
2018-04-11T14:56:52.159Z,94585.34
2018-04-11T14:59:22.049Z,94583.09
2018-04-11T15:01:51.540Z,94581.33
2018-04-11T15:04:21.047Z,94578.27
2018-04-11T15:06:50.564Z,94583.69
2018-04-11T15:09:20.250Z,94589.39
2018-04-11T15:11:49.605Z,94583.19
2018-04-11T15:14:19.500Z,94578.34
2018-04-11T15:16:49.024Z,94567.14
2018-04-11T15:19:18.534Z,94578.76
2018-04-11T15:21:48.024Z,94565.05
2018-04-11T15:24:17.941Z,94564.55
2018-04-11T15:26:47.852Z,94555.34
2018-04-11T15:29:17.783Z,94551.45
2018-04-11T15:31:47.677Z,94548.63
2018-04-11T15:34:17.228Z,94549.63
2018-04-11T15:36:46.869Z,94549.83
2018-04-11T15:39:16.366Z,94549.95
2018-04-11T15:41:45.637Z,94559.81
2018-04-11T15:44:15.135Z,94542.80
2018-04-11T15:46:44.302Z,94547.20
2018-04-11T15:49:14.195Z,94545.84
2018-04-11T15:51:43.891Z,94539.18
2018-04-11T15:54:13.383Z,94549.81
2018-04-11T15:56:42.885Z,94543.38
2018-04-11T15:59:12.383Z,94536.48
2018-04-11T16:01:41.873Z,94534.57
2018-04-11T16:04:11.421Z,94545.11
2018-04-11T16:06:40.682Z,94533.78
2018-04-11T16:09:10.200Z,94540.16
2018-04-11T16:11:39.701Z,94536.70
2018-04-11T16:14:09.197Z,94536.42
2018-04-11T16:16:38.693Z,94525.20
2018-04-11T16:19:08.665Z,94524.40
2018-04-11T16:21:38.695Z,94535.48
2018-04-11T16:24:08.236Z,94532.96
2018-04-11T16:26:38.175Z,94524.53
2018-04-11T16:29:07.683Z,94531.00
2018-04-11T16:31:37.198Z,94535.48
2018-04-11T16:34:06.695Z,94535.89
2018-04-11T16:36:36.180Z,94535.62
2018-04-11T16:39:04.773Z,94523.61
2018-04-11T16:41:34.029Z,94534.11
2018-04-11T16:44:03.539Z,94530.14
2018-04-11T16:46:33.035Z,94525.24
2018-04-11T16:49:02.532Z,94522.67
2018-04-11T16:51:31.737Z,94527.49
2018-04-11T16:54:01.015Z,94521.05
2018-04-11T16:56:30.522Z,94528.30
2018-04-11T16:59:00.019Z,94510.95
2018-04-11T17:01:29.531Z,94522.97
2018-04-11T17:03:58.828Z,94513.17
2018-04-11T17:06:28.327Z,94511.62
2018-04-11T17:08:57.825Z,94516.75
2018-04-11T17:11:27.096Z,94516.33
2018-04-11T17:13:56.382Z,94510.81
2018-04-11T17:16:25.638Z,94513.58
2018-04-11T17:18:54.897Z,94512.06
2018-04-11T17:21:41.255Z,94505.30
2018-04-11T17:24:27.655Z,94506.53
2018-04-11T17:27:14.172Z,94504.66
2018-04-11T17:30:00.543Z,94500.19
2018-04-11T17:32:30.023Z,94499.17
2018-04-11T17:34:59.511Z,94492.59
2018-04-11T17:37:29.418Z,94496.24
2018-04-11T17:39:59.350Z,94489.43
2018-04-11T17:42:29.236Z,94487.00
2018-04-11T17:44:58.517Z,94484.85
2018-04-11T17:47:28.013Z,94483.16
2018-04-11T17:49:57.285Z,94483.08
2018-04-11T17:52:26.772Z,94483.37
2018-04-11T17:54:56.679Z,94486.03
2018-04-11T17:57:26.589Z,94475.10
2018-04-11T17:59:56.283Z,94487.91
2018-04-11T18:02:25.791Z,94484.44
2018-04-11T18:04:55.291Z,94483.44
2018-04-11T18:07:24.827Z,94483.95
2018-04-11T18:09:54.931Z,94484.77
2018-04-11T18:12:24.426Z,94477.94
2018-04-11T18:14:53.967Z,94484.30
2018-04-11T18:17:23.471Z,94484.13
2018-04-11T18:19:52.974Z,94481.97
2018-04-11T18:22:22.491Z,94475.48
2018-04-11T18:24:52.004Z,94472.43
2018-04-11T18:27:21.525Z,94479.37
2018-04-11T18:29:51.135Z,94477.28
2018-04-11T18:32:20.785Z,94470.28
2018-04-11T18:34:50.297Z,94471.99
2018-04-11T18:37:20.197Z,94469.16
2018-04-11T18:39:50.797Z,94468.56
2018-04-11T18:42:20.111Z,94471.61
2018-04-11T18:44:49.613Z,94463.67
2018-04-11T18:47:19.150Z,94464.87
2018-04-11T18:49:48.519Z,94470.59
2018-04-11T18:52:18.013Z,94463.80
2018-04-11T18:54:47.570Z,94462.50
2018-04-11T18:57:17.073Z,94449.87
2018-04-11T18:59:46.573Z,94453.50
2018-04-11T19:02:16.089Z,94447.87
2018-04-11T19:04:45.981Z,94443.75
2018-04-11T19:07:15.473Z,94446.81
2018-04-11T19:09:44.969Z,94445.82
2018-04-11T19:12:14.483Z,94444.90
2018-04-11T19:14:43.981Z,94443.28
2018-04-11T19:17:13.475Z,94437.80
2018-04-11T19:19:42.990Z,94434.98
2018-04-11T19:22:12.496Z,94441.36
2018-04-11T19:24:41.996Z,94434.30
2018-04-11T19:27:11.279Z,94435.69
2018-04-11T19:29:40.794Z,94434.62
2018-04-11T19:32:10.296Z,94441.23
2018-04-11T19:34:39.805Z,94430.64
2018-04-11T19:37:09.304Z,94419.91
2018-04-11T19:39:38.813Z,94420.97
2018-04-11T19:42:09.255Z,94421.27
2018-04-11T19:44:38.518Z,94422.19
2018-04-11T19:47:08.260Z,94423.23
2018-04-11T19:49:37.550Z,94415.78
2018-04-11T19:52:06.816Z,94418.06
2018-04-11T19:54:36.089Z,94404.50
2018-04-11T19:57:05.590Z,94409.75
2018-04-11T19:59:35.071Z,94411.89
2018-04-11T20:02:04.596Z,94402.43
2018-04-11T20:04:34.037Z,94407.94
2018-04-11T20:07:03.479Z,94404.11
2018-04-11T20:09:33.534Z,94393.92
2018-04-11T20:12:02.786Z,94396.04
2018-04-11T20:14:32.060Z,94396.34
2018-04-11T20:17:01.314Z,94387.64
2018-04-11T20:19:30.578Z,94390.35
2018-04-11T20:22:00.465Z,94378.97
2018-04-11T20:24:29.735Z,94378.39
2018-04-11T20:26:59.249Z,94381.77
2018-04-11T20:29:28.749Z,94370.64
2018-04-11T20:31:58.245Z,94372.38
2018-04-11T20:34:27.735Z,94371.53
2018-04-11T20:36:57.240Z,94377.81
2018-04-11T20:39:26.733Z,94369.17
2018-04-11T20:41:56.263Z,94367.30
2018-04-11T20:44:25.526Z,94358.78
2018-04-11T20:46:55.411Z,94362.84
2018-04-11T20:49:25.206Z,94355.87
2018-04-11T20:51:54.891Z,94349.97
2018-04-11T20:54:24.397Z,94351.03
2018-04-11T20:56:53.912Z,94353.30
2018-04-11T20:59:23.406Z,94349.09
2018-04-11T21:01:52.566Z,94339.17
2018-04-11T21:04:22.498Z,94335.27
2018-04-11T21:06:52.411Z,94334.18
2018-04-11T21:09:22.310Z,94341.25
2018-04-11T21:11:52.016Z,94324.44
2018-04-11T21:14:21.517Z,94323.45
2018-04-11T21:16:51.033Z,94317.59
2018-04-11T21:19:20.728Z,94323.92
2018-04-11T21:21:50.249Z,94329.09
2018-04-11T21:24:20.172Z,94326.84
2018-04-11T21:26:50.064Z,94325.61
2018-04-11T21:29:19.568Z,94314.14
2018-04-11T21:31:49.088Z,94310.99
2018-04-11T21:34:18.598Z,94315.45
2018-04-11T21:36:48.489Z,94318.98
2018-04-11T21:39:17.998Z,94312.42
2018-04-11T21:41:47.498Z,94321.46
2018-04-11T21:44:17.001Z,94311.67
2018-04-11T21:46:46.507Z,94318.86
2018-04-11T21:49:16.247Z,94313.17
2018-04-11T21:51:45.953Z,94313.17
2018-04-11T21:54:15.604Z,94310.52
2018-04-11T21:56:45.689Z,94312.02
2018-04-11T21:59:15.600Z,94315.27
2018-04-11T22:01:45.550Z,94315.22
2018-04-11T22:04:15.060Z,94316.38
2018-04-11T22:06:44.573Z,94308.03
2018-04-11T22:09:14.102Z,94306.52
2018-04-11T22:11:43.652Z,94295.22
2018-04-11T22:14:13.566Z,94297.30
2018-04-11T22:16:43.448Z,94296.45
2018-04-11T22:19:12.948Z,94302.98
2018-04-11T22:21:42.486Z,94294.60
2018-04-11T22:24:12.388Z,94295.13
2018-04-11T22:26:41.660Z,94277.89
2018-04-11T22:29:11.172Z,94288.32
2018-04-11T22:31:40.678Z,94285.49
2018-04-11T22:34:10.190Z,94284.41
2018-04-11T22:36:39.696Z,94279.52
2018-04-11T22:39:09.189Z,94276.21
2018-04-11T22:41:39.106Z,94280.70
2018-04-11T22:44:08.605Z,94276.73
2018-04-11T22:46:38.113Z,94273.59
2018-04-11T22:49:07.618Z,94276.43
2018-04-11T22:51:37.115Z,94262.14
2018-04-11T22:54:06.636Z,94248.63
2018-04-11T22:56:35.907Z,94262.28
2018-04-11T22:59:05.415Z,94260.51
2018-04-11T23:01:34.937Z,94257.38
2018-04-11T23:04:04.640Z,94264.73
2018-04-11T23:06:34.134Z,94259.84
2018-04-11T23:09:03.414Z,94254.18
2018-04-11T23:11:32.863Z,94252.31
2018-04-11T23:14:02.163Z,94245.37
2018-04-11T23:16:31.664Z,94227.75
2018-04-11T23:19:01.165Z,94227.12
2018-04-11T23:21:30.704Z,94221.95
2018-04-11T23:23:59.973Z,94221.26
2018-04-11T23:26:29.468Z,94223.70
2018-04-11T23:28:58.970Z,94217.84
2018-04-11T23:31:28.474Z,94216.50
2018-04-11T23:33:57.977Z,94217.94
2018-04-11T23:36:27.499Z,94217.89
2018-04-11T23:38:56.997Z,94209.05
2018-04-11T23:41:26.256Z,94212.08
2018-04-11T23:43:56.162Z,94204.81
2018-04-11T23:46:25.666Z,94203.69
2018-04-11T23:48:55.177Z,94202.90
2018-04-11T23:51:25.092Z,94197.51
2018-04-11T23:53:54.978Z,94184.57
2018-04-11T23:56:24.474Z,94186.77
2018-04-11T23:58:53.985Z,94181.22
